Maersk Dayton — DDSC2 — position and weather

sailwx.info

Track history (hours):
 
Tides and Currents Weather Stations Pressure Air Temp Water Temp Dewpoint Dewpoint Depression Visibility Wind Speed Wind Dir Waves Ship Positions

Maersk Dayton

Last reported at 2017-Feb-22 00:00 UTC. Time now 2017-Feb-22 04:06 UTC.
Position N 29°06' W 049°12'.

Length 281 m; beam 32.2 m; draft 12.5 m.

Type: Ship. MMSI: 218024000.

Wind from 160 at 32 knots

Barometer 1011.5 mb
Air temperature 23.0 ° C
Dewpoint 18.5 ° C
Water temperature 22.0 ° C

Date/timePositionNaut miles runAvg speedWind from/ knotsBaromVisibWave heightAir tempDewpointWater temp
2017-Feb-22 00:00N 29°06' W 049°12'20016.6 160 / 321011.5 23.018.522.0
2017-Feb-21 12:00N 30°48' W 045°54'5518.4 150 / 121018.010.8 21.018.021.0
2017-Feb-21 09:00N 31°18' W 045°00'15417.1 110 / 101018.010.8 20.016.920.5
2017-Feb-21 00:00N 32°36' W 042°24'21017.5 120 / 81021.5 20.516.920.0
2017-Feb-20 12:00N 34°24' W 038°48'19516.3 120 / 101024.0 5.4 18.015.818.0
2017-Feb-20 00:00N 36°06' W 035°24'9515.8 150 / 211027.5 19.015.917.0
2017-Feb-19 18:00N 36°54' W 033°42'4816.5 180 / 201028.510.8 19.016.016.7
2017-Feb-19 15:05N 37°20' W 032°51'1616.0
2017-Feb-19 14:04N 37°28' W 032°34'2416.2
2017-Feb-19 12:33N 37°41' W 032°07'1018.4
2017-Feb-19 12:00N 37°42' W 031°54'817.6 160 / 201033.010.8 18.012.216.0
2017-Feb-19 11:31N 37°49' W 031°49'1515.8
2017-Feb-19 10:33N 37°57' W 031°32'1616.1
2017-Feb-19 09:33N 38°05' W 031°15'1716.6
2017-Feb-19 08:31N 38°14' W 030°56'1616.7
2017-Feb-19 07:33N 38°22' W 030°38'1616.4
2017-Feb-19 06:33N 38°31' W 030°20'1716.6
2017-Feb-19 05:33N 38°39' W 030°02'1716.8
2017-Feb-19 04:33N 38°48' W 029°44'1716.7
2017-Feb-19 03:33N 38°56' W 029°25'1716.8
2017-Feb-19 02:34N 39°05' W 029°07'1716.8
2017-Feb-19 01:34N 39°13' W 028°48'1716.9
2017-Feb-19 00:34N 39°22' W 028°29'1817.5
2017-Feb-18 23:34N 39°31' W 028°10'1817.3
2017-Feb-18 22:31N 39°40' W 027°50'2117.3
2017-Feb-18 21:18N 39°51' W 027°26'3817.2
2017-Feb-18 19:06N 40°10' W 026°44'1517.0
2017-Feb-18 18:15N 40°18' W 026°27'728.1
2017-Feb-18 18:00N 40°18' W 026°18'1015.6 240 / 101034.510.8 17.511.914.9
2017-Feb-18 17:19N 40°26' W 026°10'3316.8
2017-Feb-18 15:21N 40°42' W 025°31'1816.8
2017-Feb-18 14:16N 40°51' W 025°10'1216.9
2017-Feb-18 13:33N 40°56' W 024°56'3416.7
2017-Feb-18 11:32N 41°14' W 024°18'2016.7
2017-Feb-18 10:22N 41°23' W 023°55'1316.7
2017-Feb-18 09:33N 41°32' W 023°41'1716.8
2017-Feb-18 08:33N 41°40' W 023°21'1616.4
2017-Feb-18 07:33N 41°49' W 023°03'1716.9
2017-Feb-18 06:34N 41°58' W 022°44'20616.4
2017-Feb-17 18:00N 43°42' W 018°42'20316.9 250 / 221024.510.8 16.013.513.0
2017-Feb-17 06:00N 45°24' W 014°36'9632.2 170 / 231020.510.8 13.512.712.5
2017-Feb-17 03:00N 46°12' W 012°36'30314.4 170 / 251025.0 13.511.912.0
2017-Feb-16 06:00N 48°48' W 006°12'3216.7 210 / 101031.010.8 12.010.210.7
2017-Feb-16 04:06N 49°07' W 005°33'3217.7
2017-Feb-16 02:16N 49°23' W 004°50'1418.4
2017-Feb-16 01:29N 49°29' W 004°30'1718.2
2017-Feb-16 00:34N 49°37' W 004°08'1717.3
2017-Feb-15 23:34N 49°45' W 003°44'1616.2
2017-Feb-15 22:34N 49°53' W 003°21'1515.4
2017-Feb-15 21:34N 49°58' W 002°59'1615.7
2017-Feb-15 20:34N 50°02' W 002°36'4718.3
2017-Feb-15 18:00N 50°12' W 001°24'919.2 220 / 171031.010.8 11.0 8.2 9.3
2017-Feb-15 17:31N 50°17' W 001°12'1919.8
2017-Feb-15 16:34N 50°22' W 000°43'1918.6
2017-Feb-15 15:34N 50°27' W 000°15'1717.5
2017-Feb-15 14:34N 50°31' E 000°11'1916.1
2017-Feb-15 13:23N 50°38' E 000°39'1515.7
2017-Feb-15 12:27N 50°46' E 000°58'1516.5
2017-Feb-15 11:33N 50°55' E 001°17'1919.2
2017-Feb-15 10:34N 51°08' E 001°39'1919.2
2017-Feb-15 09:34N 51°24' E 001°57'1717.2
2017-Feb-15 08:34N 51°22' E 002°25'1615.5
2017-Feb-15 07:33N 51°22' E 002°50'1717.0
2017-Feb-15 06:34N 51°25' E 003°16'1414.1
2017-Feb-15 05:33N 51°26' E 003°39'1111.0
2017-Feb-15 04:33N 51°22' E 003°55'7 7.2
2017-Feb-15 03:33N 51°22' E 004°07'7 7.1
2017-Feb-15 02:33N 51°19' E 004°16'1 0.9
2017-Feb-15 01:31N 51°18' E 004°16'0 0.0
2017-Feb-15 00:31N 51°18' E 004°16'0 0.0
2017-Feb-14 23:31N 51°18' E 004°16'0 0.0
2017-Feb-14 22:33N 51°18' E 004°16'0 0.0
2017-Feb-14 21:32N 51°18' E 004°16'0 0.0
2017-Feb-14 20:33N 51°18' E 004°16'0 0.0
2017-Feb-14 19:28N 51°18' E 004°16'0 0.0
2017-Feb-14 18:31N 51°18' E 004°16'0 0.0
2017-Feb-14 17:31N 51°18' E 004°16'0 0.0
2017-Feb-14 16:32N 51°18' E 004°16'0 0.0
2017-Feb-14 15:33N 51°18' E 004°16'0 0.0
2017-Feb-14 14:31N 51°18' E 004°16'0 0.0
2017-Feb-14 13:33N 51°18' E 004°16'0 0.0
2017-Feb-14 12:32N 51°18' E 004°16'0 0.0
2017-Feb-14 11:33N 51°18' E 004°16'6 5.8
2017-Feb-14 10:33N 51°23' E 004°13'9 9.5
2017-Feb-14 09:33N 51°25' E 003°58'10 9.7
2017-Feb-14 08:34N 51°23' E 003°43'8 8.4
2017-Feb-14 07:33N 51°25' E 003°30'1514.8
2017-Feb-14 06:33N 51°24' E 003°06'1514.5
2017-Feb-14 05:33N 51°22' E 002°43'1211.7
2017-Feb-14 04:34N 51°21' E 002°25'1515.0
2017-Feb-14 03:34N 51°22' E 002°01'1515.1
2017-Feb-14 02:34N 51°35' E 001°48'1615.9
2017-Feb-14 01:34N 51°50' E 001°42'8 7.8
2017-Feb-14 00:34N 51°46' E 001°32'1313.4
2017-Feb-13 23:33N 51°36' E 001°17'1615.6
2017-Feb-13 22:33N 51°29' E 000°55'1514.7
2017-Feb-13 21:34N 51°30' E 000°31'1 0.7
2017-Feb-13 20:34N 51°30' E 000°30'0 0.0
2017-Feb-13 19:34N 51°30' E 000°30'0 0.0
2017-Feb-13 18:33N 51°30' E 000°30'0 0.0
2017-Feb-13 17:34N 51°30' E 000°30'0 0.0
2017-Feb-13 16:34N 51°30' E 000°30'0 0.0
2017-Feb-13 15:34N 51°30' E 000°30'0 0.0
2017-Feb-13 14:34N 51°30' E 000°30'0 0.0
2017-Feb-13 13:34N 51°30' E 000°30'0 0.0
2017-Feb-13 12:33N 51°30' E 000°30'0 0.0
2017-Feb-13 11:34N 51°30' E 000°30'0 0.0
2017-Feb-13 10:34N 51°30' E 000°30'0 0.0
2017-Feb-13 09:33N 51°30' E 000°30'0 0.0
2017-Feb-13 08:34N 51°30' E 000°30'0 0.0
2017-Feb-13 07:33N 51°30' E 000°30'0 0.0
2017-Feb-13 06:34N 51°30' E 000°30'2 2.1
2017-Feb-13 05:33N 51°30' E 000°34'9 9.2
2017-Feb-13 04:33N 51°29' E 000°48'1212.5
2017-Feb-13 03:34N 51°32' E 001°08'1716.9
2017-Feb-13 02:33N 51°43' E 001°29'1111.2
2017-Feb-13 01:33N 51°52' E 001°40'1414.3
2017-Feb-13 00:34N 52°03' E 001°54'8014.6
2017-Feb-12 19:05N 52°52' E 003°38'1016.6
2017-Feb-12 18:27N 52°56' E 003°54'1816.0
2017-Feb-12 17:21N 53°07' E 004°17'1215.0
2017-Feb-12 16:32N 53°17' E 004°28'1816.6
2017-Feb-12 15:29N 53°31' E 004°47'1819.3
2017-Feb-12 14:33N 53°37' E 005°15'9517.9
2017-Feb-12 09:13N 54°02' E 007°51'1415.9
2017-Feb-12 08:19N 54°00' E 008°15'1417.8
2017-Feb-12 07:33N 53°57' E 008°38'1615.6
2017-Feb-12 06:33N 53°52' E 009°02'1312.9
2017-Feb-12 05:34N 53°47' E 009°23'1313.4
2017-Feb-12 04:33N 53°36' E 009°35'10 9.9
2017-Feb-12 03:33N 53°33' E 009°51'3 2.6
2017-Feb-12 02:33N 53°32' E 009°55'0 0.0
2017-Feb-12 01:33N 53°32' E 009°55'0 0.0
2017-Feb-12 00:33N 53°32' E 009°55'  
Track history (hours):
 
Tides and Currents Weather Stations Pressure Air Temp Water Temp Dewpoint Dewpoint Depression Visibility Wind Speed Wind Dir Waves Ship Positions

Maersk Dayton

Last reported at 2017-Feb-22 00:00 UTC. Time now 2017-Feb-22 04:06 UTC.
Position N 29°06' W 049°12'.

Length 281 m; beam 32.2 m; draft 12.5 m.

Type: Ship. MMSI: 218024000.

Wind from 160 at 32 knots

Barometer 1011.5 mb
Air temperature 23.0 ° C
Dewpoint 18.5 ° C
Water temperature 22.0 ° C

Date/timePositionNaut miles runAvg speedWind from/ knotsBaromVisibWave heightAir tempDewpointWater temp
2017-Feb-22 00:00N 29°06' W 049°12'20016.6 160 / 321011.5 23.018.522.0
2017-Feb-21 12:00N 30°48' W 045°54'5518.4 150 / 121018.010.8 21.018.021.0
2017-Feb-21 09:00N 31°18' W 045°00'15417.1 110 / 101018.010.8 20.016.920.5
2017-Feb-21 00:00N 32°36' W 042°24'21017.5 120 / 81021.5 20.516.920.0
2017-Feb-20 12:00N 34°24' W 038°48'19516.3 120 / 101024.0 5.4 18.015.818.0
2017-Feb-20 00:00N 36°06' W 035°24'9515.8 150 / 211027.5 19.015.917.0
2017-Feb-19 18:00N 36°54' W 033°42'4816.5 180 / 201028.510.8 19.016.016.7
2017-Feb-19 15:05N 37°20' W 032°51'1616.0
2017-Feb-19 14:04N 37°28' W 032°34'2416.2
2017-Feb-19 12:33N 37°41' W 032°07'1018.4
2017-Feb-19 12:00N 37°42' W 031°54'817.6 160 / 201033.010.8 18.012.216.0
2017-Feb-19 11:31N 37°49' W 031°49'1515.8
2017-Feb-19 10:33N 37°57' W 031°32'1616.1
2017-Feb-19 09:33N 38°05' W 031°15'1716.6
2017-Feb-19 08:31N 38°14' W 030°56'1616.7
2017-Feb-19 07:33N 38°22' W 030°38'1616.4
2017-Feb-19 06:33N 38°31' W 030°20'1716.6
2017-Feb-19 05:33N 38°39' W 030°02'1716.8
2017-Feb-19 04:33N 38°48' W 029°44'1716.7
2017-Feb-19 03:33N 38°56' W 029°25'1716.8
2017-Feb-19 02:34N 39°05' W 029°07'1716.8
2017-Feb-19 01:34N 39°13' W 028°48'1716.9
2017-Feb-19 00:34N 39°22' W 028°29'1817.5
2017-Feb-18 23:34N 39°31' W 028°10'1817.3
2017-Feb-18 22:31N 39°40' W 027°50'2117.3
2017-Feb-18 21:18N 39°51' W 027°26'3817.2
2017-Feb-18 19:06N 40°10' W 026°44'1517.0
2017-Feb-18 18:15N 40°18' W 026°27'728.1
2017-Feb-18 18:00N 40°18' W 026°18'1015.6 240 / 101034.510.8 17.511.914.9
2017-Feb-18 17:19N 40°26' W 026°10'3316.8
2017-Feb-18 15:21N 40°42' W 025°31'1816.8
2017-Feb-18 14:16N 40°51' W 025°10'1216.9
2017-Feb-18 13:33N 40°56' W 024°56'3416.7
2017-Feb-18 11:32N 41°14' W 024°18'2016.7
2017-Feb-18 10:22N 41°23' W 023°55'1316.7
2017-Feb-18 09:33N 41°32' W 023°41'1716.8
2017-Feb-18 08:33N 41°40' W 023°21'1616.4
2017-Feb-18 07:33N 41°49' W 023°03'1716.9
2017-Feb-18 06:34N 41°58' W 022°44'20616.4
2017-Feb-17 18:00N 43°42' W 018°42'20316.9 250 / 221024.510.8 16.013.513.0
2017-Feb-17 06:00N 45°24' W 014°36'9632.2 170 / 231020.510.8 13.512.712.5
2017-Feb-17 03:00N 46°12' W 012°36'30314.4 170 / 251025.0 13.511.912.0
2017-Feb-16 06:00N 48°48' W 006°12'3216.7 210 / 101031.010.8 12.010.210.7
2017-Feb-16 04:06N 49°07' W 005°33'3217.7
2017-Feb-16 02:16N 49°23' W 004°50'1418.4
2017-Feb-16 01:29N 49°29' W 004°30'1718.2
2017-Feb-16 00:34N 49°37' W 004°08'1717.3
2017-Feb-15 23:34N 49°45' W 003°44'1616.2
2017-Feb-15 22:34N 49°53' W 003°21'1515.4
2017-Feb-15 21:34N 49°58' W 002°59'1615.7
2017-Feb-15 20:34N 50°02' W 002°36'4718.3
2017-Feb-15 18:00N 50°12' W 001°24'919.2 220 / 171031.010.8 11.0 8.2 9.3
2017-Feb-15 17:31N 50°17' W 001°12'1919.8
2017-Feb-15 16:34N 50°22' W 000°43'1918.6
2017-Feb-15 15:34N 50°27' W 000°15'1717.5
2017-Feb-15 14:34N 50°31' E 000°11'1916.1
2017-Feb-15 13:23N 50°38' E 000°39'1515.7
2017-Feb-15 12:27N 50°46' E 000°58'1516.5
2017-Feb-15 11:33N 50°55' E 001°17'1919.2
2017-Feb-15 10:34N 51°08' E 001°39'1919.2
2017-Feb-15 09:34N 51°24' E 001°57'1717.2
2017-Feb-15 08:34N 51°22' E 002°25'1615.5
2017-Feb-15 07:33N 51°22' E 002°50'1717.0
2017-Feb-15 06:34N 51°25' E 003°16'1414.1
2017-Feb-15 05:33N 51°26' E 003°39'1111.0
2017-Feb-15 04:33N 51°22' E 003°55'7 7.2
2017-Feb-15 03:33N 51°22' E 004°07'7 7.1
2017-Feb-15 02:33N 51°19' E 004°16'1 0.9
2017-Feb-15 01:31N 51°18' E 004°16'0 0.0
2017-Feb-15 00:31N 51°18' E 004°16'0 0.0
2017-Feb-14 23:31N 51°18' E 004°16'0 0.0
2017-Feb-14 22:33N 51°18' E 004°16'0 0.0
2017-Feb-14 21:32N 51°18' E 004°16'0 0.0
2017-Feb-14 20:33N 51°18' E 004°16'0 0.0
2017-Feb-14 19:28N 51°18' E 004°16'0 0.0
2017-Feb-14 18:31N 51°18' E 004°16'0 0.0
2017-Feb-14 17:31N 51°18' E 004°16'0 0.0
2017-Feb-14 16:32N 51°18' E 004°16'0 0.0
2017-Feb-14 15:33N 51°18' E 004°16'0 0.0
2017-Feb-14 14:31N 51°18' E 004°16'0 0.0
2017-Feb-14 13:33N 51°18' E 004°16'0 0.0
2017-Feb-14 12:32N 51°18' E 004°16'0 0.0
2017-Feb-14 11:33N 51°18' E 004°16'6 5.8
2017-Feb-14 10:33N 51°23' E 004°13'9 9.5
2017-Feb-14 09:33N 51°25' E 003°58'10 9.7
2017-Feb-14 08:34N 51°23' E 003°43'8 8.4
2017-Feb-14 07:33N 51°25' E 003°30'1514.8
2017-Feb-14 06:33N 51°24' E 003°06'1514.5
2017-Feb-14 05:33N 51°22' E 002°43'1211.7
2017-Feb-14 04:34N 51°21' E 002°25'1515.0
2017-Feb-14 03:34N 51°22' E 002°01'1515.1
2017-Feb-14 02:34N 51°35' E 001°48'1615.9
2017-Feb-14 01:34N 51°50' E 001°42'8 7.8
2017-Feb-14 00:34N 51°46' E 001°32'1313.4
2017-Feb-13 23:33N 51°36' E 001°17'1615.6
2017-Feb-13 22:33N 51°29' E 000°55'1514.7
2017-Feb-13 21:34N 51°30' E 000°31'1 0.7
2017-Feb-13 20:34N 51°30' E 000°30'0 0.0
2017-Feb-13 19:34N 51°30' E 000°30'0 0.0
2017-Feb-13 18:33N 51°30' E 000°30'0 0.0
2017-Feb-13 17:34N 51°30' E 000°30'0 0.0
2017-Feb-13 16:34N 51°30' E 000°30'0 0.0
2017-Feb-13 15:34N 51°30' E 000°30'0 0.0
2017-Feb-13 14:34N 51°30' E 000°30'0 0.0
2017-Feb-13 13:34N 51°30' E 000°30'0 0.0
2017-Feb-13 12:33N 51°30' E 000°30'0 0.0
2017-Feb-13 11:34N 51°30' E 000°30'0 0.0
2017-Feb-13 10:34N 51°30' E 000°30'0 0.0
2017-Feb-13 09:33N 51°30' E 000°30'0 0.0
2017-Feb-13 08:34N 51°30' E 000°30'0 0.0
2017-Feb-13 07:33N 51°30' E 000°30'0 0.0
2017-Feb-13 06:34N 51°30' E 000°30'2 2.1
2017-Feb-13 05:33N 51°30' E 000°34'9 9.2
2017-Feb-13 04:33N 51°29' E 000°48'1212.5
2017-Feb-13 03:34N 51°32' E 001°08'1716.9
2017-Feb-13 02:33N 51°43' E 001°29'1111.2
2017-Feb-13 01:33N 51°52' E 001°40'1414.3
2017-Feb-13 00:34N 52°03' E 001°54'8014.6
2017-Feb-12 19:05N 52°52' E 003°38'1016.6
2017-Feb-12 18:27N 52°56' E 003°54'1816.0
2017-Feb-12 17:21N 53°07' E 004°17'1215.0
2017-Feb-12 16:32N 53°17' E 004°28'1816.6
2017-Feb-12 15:29N 53°31' E 004°47'1819.3
2017-Feb-12 14:33N 53°37' E 005°15'9517.9
2017-Feb-12 09:13N 54°02' E 007°51'1415.9
2017-Feb-12 08:19N 54°00' E 008°15'1417.8
2017-Feb-12 07:33N 53°57' E 008°38'1615.6
2017-Feb-12 06:33N 53°52' E 009°02'1312.9
2017-Feb-12 05:34N 53°47' E 009°23'1313.4
2017-Feb-12 04:33N 53°36' E 009°35'10 9.9
2017-Feb-12 03:33N 53°33' E 009°51'3 2.6
2017-Feb-12 02:33N 53°32' E 009°55'0 0.0
2017-Feb-12 01:33N 53°32' E 009°55'0 0.0
2017-Feb-12 00:33N 53°32' E 009°55'  

Dump ship's entire track history